createdAt,value
2023-04-01T00:01:12.912Z,8.10
2023-04-01T00:03:39.669Z,8.06
2023-04-01T00:06:06.787Z,8.06
2023-04-01T00:08:33.302Z,8.10
2023-04-01T00:10:59.873Z,8.04
2023-04-01T00:13:27.335Z,8.07
2023-04-01T00:15:56.206Z,8.09
2023-04-01T00:18:23.691Z,8.09
2023-04-01T00:20:52.547Z,8.13
2023-04-01T00:23:20.560Z,8.10
2023-04-01T00:25:48.920Z,8.10
2023-04-01T00:28:17.702Z,8.04
2023-04-01T00:30:44.447Z,8.05
2023-04-01T00:33:12.049Z,8.11
2023-04-01T00:35:40.515Z,8.04
2023-04-01T00:38:07.484Z,7.98
2023-04-01T00:40:40.632Z,7.97
2023-04-01T00:43:13.781Z,7.97
2023-04-01T00:45:43.340Z,8.03
2023-04-01T00:48:21.465Z,8.07
2023-04-01T00:51:08.450Z,8.05
2023-04-01T00:53:39.201Z,8.10
2023-04-01T00:56:12.347Z,8.07
2023-04-01T00:58:43.188Z,7.92
2023-04-01T01:01:11.030Z,7.85
2023-04-01T01:03:37.896Z,7.85
2023-04-01T01:06:07.082Z,7.93
2023-04-01T01:09:01.378Z,7.93
2023-04-01T01:11:42.783Z,7.88
2023-04-01T01:14:25.848Z,7.70
2023-04-01T01:17:03.453Z,7.44
2023-04-01T01:19:52.029Z,7.37
2023-04-01T01:22:26.411Z,7.41
2023-04-01T01:25:17.445Z,7.40
2023-04-01T01:27:53.739Z,7.51
2023-04-01T01:30:32.864Z,7.63
2023-04-01T01:33:13.428Z,7.65
2023-04-01T01:35:58.892Z,7.44
2023-04-01T01:38:29.923Z,7.39
2023-04-01T01:41:03.880Z,7.36
2023-04-01T01:43:36.352Z,7.49
2023-04-01T01:46:08.714Z,7.59
2023-04-01T01:48:36.852Z,7.60
2023-04-01T01:51:06.369Z,7.68
2023-04-01T01:53:33.104Z,7.68
2023-04-01T01:56:00.173Z,7.72
2023-04-01T01:58:52.845Z,7.69
2023-04-01T02:01:31.299Z,7.55
2023-04-01T02:04:05.663Z,7.56
2023-04-01T02:06:36.578Z,7.55
2023-04-01T02:09:07.601Z,7.43
2023-04-01T02:11:45.065Z,7.43
2023-04-01T02:14:19.927Z,7.41
2023-04-01T02:17:01.200Z,7.40
2023-04-01T02:19:34.305Z,7.30
2023-04-01T02:22:04.786Z,7.34
2023-04-01T02:24:35.001Z,7.41
2023-04-01T02:27:01.751Z,7.36
2023-04-01T02:29:29.709Z,7.40
2023-04-01T02:31:56.908Z,7.35
2023-04-01T02:34:25.511Z,7.40
2023-04-01T02:36:52.610Z,7.42
2023-04-01T02:39:19.209Z,7.45
2023-04-01T02:41:46.448Z,7.30
2023-04-01T02:44:15.697Z,7.22
2023-04-01T02:46:43.226Z,7.13
2023-04-01T02:49:09.872Z,7.07
2023-04-01T02:51:36.434Z,7.11
2023-04-01T02:54:03.125Z,7.14
2023-04-01T02:56:29.657Z,7.18
2023-04-01T02:58:56.743Z,7.27
2023-04-01T03:01:23.420Z,7.30
2023-04-01T03:03:50.005Z,7.38
2023-04-01T03:06:18.085Z,7.39
2023-04-01T03:08:45.314Z,7.30
2023-04-01T03:11:12.624Z,7.25
2023-04-01T03:13:39.459Z,7.25
2023-04-01T03:16:07.407Z,7.23
2023-04-01T03:18:35.517Z,7.28
2023-04-01T03:21:23.020Z,7.32
2023-04-01T03:23:50.266Z,7.35
2023-04-01T03:26:17.480Z,7.35
2023-04-01T03:28:44.214Z,7.41
2023-04-01T03:31:11.497Z,7.41
2023-04-01T03:33:44.340Z,7.42
2023-04-01T03:36:13.198Z,7.47
2023-04-01T03:38:41.740Z,7.46
2023-04-01T03:41:08.255Z,7.40
2023-04-01T03:43:34.757Z,7.40
2023-04-01T03:46:01.294Z,7.40
2023-04-01T03:48:28.461Z,7.40
2023-04-01T03:50:55.013Z,7.34
2023-04-01T03:53:22.298Z,7.32
2023-04-01T03:55:49.141Z,7.28
2023-04-01T03:58:16.176Z,7.26
2023-04-01T04:00:42.685Z,7.26
2023-04-01T04:03:10.412Z,7.15
2023-04-01T04:05:37.070Z,7.08
2023-04-01T04:08:04.188Z,7.01
2023-04-01T04:10:31.734Z,6.99
2023-04-01T04:12:58.275Z,6.93
2023-04-01T04:15:28.853Z,6.82
2023-04-01T04:17:55.522Z,6.75
2023-04-01T04:20:23.226Z,6.75
2023-04-01T04:22:49.699Z,6.74
2023-04-01T04:25:16.258Z,6.69
2023-04-01T04:27:42.798Z,6.66
2023-04-01T04:30:12.256Z,6.66
2023-04-01T04:32:38.827Z,6.62
2023-04-01T04:35:07.424Z,6.66
2023-04-01T04:37:34.576Z,6.69
2023-04-01T04:40:01.104Z,6.64
2023-04-01T04:42:28.633Z,6.65
2023-04-01T04:45:00.797Z,6.60
2023-04-01T04:47:27.857Z,6.58
2023-04-01T04:49:54.501Z,6.58
2023-04-01T04:52:21.120Z,6.57
2023-04-01T04:54:47.802Z,6.53
2023-04-01T04:57:14.335Z,6.50
2023-04-01T04:59:47.711Z,6.51
2023-04-01T05:02:25.359Z,6.57
2023-04-01T05:04:51.849Z,6.58
2023-04-01T05:07:18.295Z,6.54
2023-04-01T05:09:46.645Z,6.60
2023-04-01T05:12:14.136Z,6.60
2023-04-01T05:14:56.231Z,6.64
2023-04-01T05:17:22.973Z,6.58
2023-04-01T05:19:49.535Z,6.62
2023-04-01T05:22:16.090Z,6.61
2023-04-01T05:24:43.520Z,6.61
2023-04-01T05:27:13.061Z,6.62
2023-04-01T05:29:41.208Z,6.59
2023-04-01T05:32:13.100Z,6.62
2023-04-01T05:34:39.622Z,6.62
2023-04-01T05:37:08.167Z,6.60
2023-04-01T05:39:39.052Z,6.61
2023-04-01T05:42:09.017Z,6.59
2023-04-01T05:44:36.937Z,6.61
2023-04-01T05:47:04.836Z,6.63
2023-04-01T05:49:31.987Z,6.65
2023-04-01T05:51:58.609Z,6.65
2023-04-01T05:54:26.137Z,6.69
2023-04-01T05:56:52.609Z,6.76
2023-04-01T05:59:20.179Z,6.83
2023-04-01T06:01:46.628Z,6.87
2023-04-01T06:04:16.998Z,6.79
2023-04-01T06:06:44.464Z,6.77
2023-04-01T06:09:18.989Z,6.79
2023-04-01T06:12:03.334Z,6.81
2023-04-01T06:14:50.668Z,6.83
2023-04-01T06:17:39.288Z,6.79
2023-04-01T06:20:17.955Z,6.77
2023-04-01T06:23:06.210Z,6.74
2023-04-01T06:25:44.095Z,6.73
2023-04-01T06:28:10.836Z,6.74
2023-04-01T06:30:45.959Z,6.74
2023-04-01T06:33:39.142Z,6.79
2023-04-01T06:36:43.146Z,6.80
2023-04-01T06:39:27.109Z,6.78
2023-04-01T06:42:03.378Z,6.81
2023-04-01T06:44:37.982Z,6.84
2023-04-01T06:47:57.106Z,6.87
2023-04-01T06:50:55.593Z,6.92
2023-04-01T06:53:45.970Z,6.90
2023-04-01T06:56:38.288Z,7.13
2023-04-01T06:59:33.531Z,7.23
2023-04-01T07:02:42.535Z,7.41
2023-04-01T07:05:12.261Z,7.51
2023-04-01T07:07:49.988Z,7.44
2023-04-01T07:10:58.270Z,7.49
2023-04-01T07:13:54.260Z,7.60
2023-04-01T07:16:35.430Z,7.64
2023-04-01T07:19:16.603Z,7.64
2023-04-01T07:22:39.286Z,7.70
2023-04-01T07:25:31.768Z,7.52
2023-04-01T07:28:20.625Z,7.63
2023-04-01T07:31:21.239Z,7.65
2023-04-01T07:34:25.509Z,7.64
2023-04-01T07:37:07.409Z,7.72
2023-04-01T07:39:48.100Z,7.59
2023-04-01T07:42:58.437Z,7.68
2023-04-01T07:45:43.782Z,7.60
2023-04-01T07:48:22.125Z,7.67
2023-04-01T07:50:57.726Z,7.75
2023-04-01T07:53:33.675Z,7.74
2023-04-01T07:56:29.969Z,7.70
2023-04-01T07:59:23.815Z,7.74
2023-04-01T08:02:35.675Z,7.76
2023-04-01T08:05:16.496Z,7.87
2023-04-01T08:08:05.192Z,7.93
2023-04-01T08:11:12.986Z,7.99
2023-04-01T08:14:17.624Z,8.04
2023-04-01T08:17:21.987Z,7.99
2023-04-01T08:20:02.736Z,7.92
2023-04-01T08:22:46.037Z,8.10
2023-04-01T08:25:26.886Z,8.15
2023-04-01T08:28:02.907Z,8.13
2023-04-01T08:30:44.666Z,8.13
2023-04-01T08:33:20.311Z,8.11
2023-04-01T08:35:52.915Z,8.14
2023-04-01T08:38:45.989Z,8.10
2023-04-01T08:41:28.560Z,8.03
2023-04-01T08:44:30.416Z,8.02
2023-04-01T08:47:20.271Z,8.13
2023-04-01T08:50:03.061Z,8.21
2023-04-01T08:53:12.190Z,8.22
2023-04-01T08:55:40.140Z,8.30
2023-04-01T08:58:44.752Z,8.39
2023-04-01T09:01:27.026Z,8.42
2023-04-01T09:04:34.582Z,8.48
2023-04-01T09:07:29.249Z,8.53
2023-04-01T09:10:07.489Z,8.66
2023-04-01T09:13:17.062Z,8.62
2023-04-01T09:16:20.493Z,8.54
2023-04-01T09:18:56.777Z,8.58
2023-04-01T09:21:43.088Z,8.63
2023-04-01T09:24:19.014Z,8.60
2023-04-01T09:27:04.228Z,8.47
2023-04-01T09:29:55.395Z,8.60
2023-04-01T09:33:10.227Z,8.58
2023-04-01T09:35:49.763Z,8.61
2023-04-01T09:38:37.253Z,8.70
2023-04-01T09:41:45.183Z,8.82
2023-04-01T09:44:24.258Z,8.70
2023-04-01T09:47:27.871Z,8.62
2023-04-01T09:50:33.947Z,8.60
2023-04-01T09:53:29.284Z,8.74
2023-04-01T09:56:17.577Z,8.74
2023-04-01T09:59:01.292Z,8.58
2023-04-01T10:02:17.508Z,8.71
2023-04-01T10:05:18.810Z,8.79
2023-04-01T10:08:03.486Z,8.77
2023-04-01T10:10:35.965Z,8.56
2023-04-01T10:13:27.446Z,8.56
2023-04-01T10:16:23.318Z,8.45
2023-04-01T10:19:11.778Z,8.50
2023-04-01T10:21:53.636Z,8.55
2023-04-01T10:24:48.251Z,8.62
2023-04-01T10:27:38.556Z,8.66
2023-04-01T10:30:29.064Z,8.90
2023-04-01T10:33:24.381Z,8.95
2023-04-01T10:36:12.866Z,9.23
2023-04-01T10:38:52.905Z,9.27
2023-04-01T10:42:04.562Z,9.37
2023-04-01T10:45:28.632Z,9.27
2023-04-01T10:48:04.854Z,9.20
2023-04-01T10:50:58.840Z,9.18
2023-04-01T10:53:59.490Z,9.18
2023-04-01T10:56:58.339Z,9.06
2023-04-01T10:59:46.338Z,8.80
2023-04-01T11:02:59.073Z,8.78
2023-04-01T11:06:23.574Z,8.88
2023-04-01T11:09:34.137Z,9.00
2023-04-01T11:12:28.521Z,9.09
2023-04-01T11:15:24.481Z,9.14
2023-04-01T11:18:25.626Z,9.07
2023-04-01T11:21:26.930Z,9.09
2023-04-01T11:24:12.393Z,9.13
2023-04-01T11:27:13.052Z,9.13
2023-04-01T11:30:00.915Z,9.06
2023-04-01T11:32:53.961Z,9.14
2023-04-01T11:35:36.049Z,9.22
2023-04-01T11:38:31.896Z,9.20
2023-04-01T11:41:36.251Z,9.36
2023-04-01T11:44:30.614Z,9.28
2023-04-01T11:47:37.286Z,9.41
2023-04-01T11:50:22.004Z,9.50
2023-04-01T11:53:03.288Z,9.44
2023-04-01T11:55:42.791Z,9.70
2023-04-01T11:58:41.644Z,9.56
2023-04-01T12:01:27.923Z,9.52
2023-04-01T12:04:25.327Z,9.66
2023-04-01T12:06:54.545Z,9.63
2023-04-01T12:09:32.704Z,9.68
2023-04-01T12:12:17.514Z,9.53
2023-04-01T12:15:05.711Z,9.38
2023-04-01T12:17:45.014Z,9.24
2023-04-01T12:20:34.420Z,9.25
2023-04-01T12:23:16.347Z,9.29
2023-04-01T12:25:48.909Z,9.12
2023-04-01T12:28:18.307Z,9.03
2023-04-01T12:31:07.694Z,9.02
2023-04-01T12:33:49.934Z,9.11
2023-04-01T12:36:29.174Z,9.05
2023-04-01T12:39:25.892Z,8.81
2023-04-01T12:42:05.521Z,8.89
2023-04-01T12:44:42.193Z,9.05
2023-04-01T12:47:33.027Z,9.18
2023-04-01T12:50:27.113Z,9.30
2023-04-01T12:53:43.957Z,9.25
2023-04-01T12:56:44.169Z,9.49
2023-04-01T12:59:54.598Z,9.50
2023-04-01T13:02:52.068Z,9.47
2023-04-01T13:06:02.014Z,9.41
2023-04-01T13:08:50.372Z,9.29
2023-04-01T13:11:44.858Z,9.47
2023-04-01T13:14:51.512Z,9.40
2023-04-01T13:17:29.856Z,9.39
2023-04-01T13:20:13.357Z,9.33
2023-04-01T13:23:04.737Z,9.12
2023-04-01T13:25:40.454Z,9.12
2023-04-01T13:28:26.716Z,8.99
2023-04-01T13:31:02.403Z,9.19
2023-04-01T13:33:39.821Z,9.27
2023-04-01T13:36:20.323Z,9.34
2023-04-01T13:39:01.998Z,9.44
2023-04-01T13:41:50.686Z,9.43
2023-04-01T13:44:20.993Z,9.52
2023-04-01T13:47:16.547Z,9.49
2023-04-01T13:50:18.020Z,9.36
2023-04-01T13:52:47.529Z,9.29
2023-04-01T13:55:55.508Z,9.47
2023-04-01T13:58:33.055Z,9.64
2023-04-01T14:01:02.584Z,9.81
2023-04-01T14:03:32.612Z,9.87
2023-04-01T14:06:41.169Z,9.76
2023-04-01T14:09:28.997Z,9.76
2023-04-01T14:12:10.256Z,9.66
2023-04-01T14:14:58.346Z,9.70
2023-04-01T14:17:49.731Z,9.88
2023-04-01T14:20:34.394Z,10.06
2023-04-01T14:23:26.103Z,10.00
2023-04-01T14:26:31.658Z,10.20
2023-04-01T14:29:39.783Z,10.14
2023-04-01T14:32:28.053Z,10.13
2023-04-01T14:35:21.761Z,10.07
2023-04-01T14:37:57.300Z,10.00
2023-04-01T14:40:51.926Z,9.87
2023-04-01T14:43:43.584Z,9.85
2023-04-01T14:46:36.201Z,9.83
2023-04-01T14:49:14.582Z,9.93
2023-04-01T14:51:42.029Z,9.96
2023-04-01T14:54:11.436Z,10.00
2023-04-01T14:56:42.934Z,9.84
2023-04-01T14:59:23.044Z,9.83
2023-04-01T15:02:19.323Z,9.75
2023-04-01T15:05:27.400Z,9.56
2023-04-01T15:08:07.085Z,9.36
2023-04-01T15:11:10.918Z,9.31
2023-04-01T15:14:03.079Z,9.14
2023-04-01T15:16:41.060Z,9.16
2023-04-01T15:19:31.907Z,9.14
2023-04-01T15:22:33.227Z,9.28
2023-04-01T15:25:14.849Z,9.38
2023-04-01T15:27:56.128Z,9.38
2023-04-01T15:30:34.280Z,9.37
2023-04-01T15:33:21.292Z,9.39
2023-04-01T15:35:55.100Z,9.37
2023-04-01T15:38:27.816Z,9.41
2023-04-01T15:41:13.057Z,9.44
2023-04-01T15:43:50.087Z,9.27
2023-04-01T15:46:28.647Z,9.36
2023-04-01T15:49:24.041Z,9.25
2023-04-01T15:52:04.866Z,9.29
2023-04-01T15:54:58.299Z,9.28
2023-04-01T15:57:41.629Z,9.53
2023-04-01T16:00:11.954Z,9.62
2023-04-01T16:02:55.853Z,9.73
2023-04-01T16:05:43.725Z,9.75
2023-04-01T16:08:19.009Z,9.56
2023-04-01T16:11:14.404Z,9.37
2023-04-01T16:13:49.802Z,9.22
2023-04-01T16:16:32.115Z,9.21
2023-04-01T16:19:04.650Z,9.14
2023-04-01T16:21:43.057Z,9.05
2023-04-01T16:24:35.316Z,8.92
2023-04-01T16:27:10.111Z,9.01
2023-04-01T16:30:01.291Z,9.04
2023-04-01T16:32:55.783Z,9.08
2023-04-01T16:35:49.977Z,9.03
2023-04-01T16:38:27.388Z,9.01
2023-04-01T16:41:06.625Z,8.98
2023-04-01T16:43:36.085Z,8.87
2023-04-01T16:46:28.322Z,8.92
2023-04-01T16:49:09.771Z,8.85
2023-04-01T16:52:06.819Z,8.84
2023-04-01T16:54:51.310Z,8.74
2023-04-01T16:57:27.549Z,8.79
2023-04-01T17:00:16.804Z,8.79
2023-04-01T17:02:53.499Z,8.72
2023-04-01T17:05:33.875Z,8.77
2023-04-01T17:08:30.632Z,8.70
2023-04-01T17:11:23.831Z,8.72
2023-04-01T17:13:58.738Z,8.69
2023-04-01T17:16:49.665Z,8.76
2023-04-01T17:19:34.870Z,8.76
2023-04-01T17:22:28.673Z,8.52
2023-04-01T17:25:10.494Z,8.50
2023-04-01T17:27:43.025Z,8.57
2023-04-01T17:30:34.669Z,8.52
2023-04-01T17:33:16.736Z,8.49
2023-04-01T17:35:58.805Z,8.46
2023-04-01T17:39:03.675Z,8.37
2023-04-01T17:41:41.995Z,8.49
2023-04-01T17:44:23.612Z,8.42
2023-04-01T17:47:27.067Z,8.34
2023-04-01T17:50:14.802Z,8.30
2023-04-01T17:52:59.717Z,8.34
2023-04-01T17:55:49.951Z,8.41
2023-04-01T17:58:29.370Z,8.38
2023-04-01T18:01:04.727Z,8.48
2023-04-01T18:03:59.224Z,8.37
2023-04-01T18:06:37.229Z,8.41
2023-04-01T18:09:39.479Z,8.41
2023-04-01T18:12:06.220Z,8.34
2023-04-01T18:14:51.166Z,8.36
2023-04-01T18:17:23.667Z,8.29
2023-04-01T18:20:11.189Z,8.33
2023-04-01T18:22:49.594Z,8.36
2023-04-01T18:25:35.900Z,8.26
2023-04-01T18:28:25.774Z,8.28
2023-04-01T18:31:06.780Z,8.30
2023-04-01T18:33:42.907Z,8.27
2023-04-01T18:36:27.957Z,8.25
2023-04-01T18:39:03.988Z,8.31
2023-04-01T18:41:41.161Z,8.28
2023-04-01T18:44:19.894Z,8.30
2023-04-01T18:47:04.699Z,8.25
2023-04-01T18:49:44.240Z,8.31
2023-04-01T18:52:21.220Z,8.28
2023-04-01T18:55:03.007Z,8.32
2023-04-01T18:57:50.438Z,8.35
2023-04-01T19:00:26.188Z,8.25
2023-04-01T19:03:01.607Z,8.20
2023-04-01T19:05:34.146Z,8.21
2023-04-01T19:08:25.710Z,8.26
2023-04-01T19:11:11.690Z,8.23
2023-04-01T19:13:59.520Z,8.18
2023-04-01T19:16:35.094Z,8.22
2023-04-01T19:19:23.582Z,8.13
2023-04-01T19:21:53.840Z,8.13
2023-04-01T19:24:40.895Z,8.17
2023-04-01T19:27:07.277Z,8.11
2023-04-01T19:29:48.519Z,8.07
2023-04-01T19:32:26.328Z,8.16
2023-04-01T19:35:11.637Z,8.21
2023-04-01T19:37:45.626Z,8.12
2023-04-01T19:40:38.861Z,8.08
2023-04-01T19:43:26.702Z,8.01
2023-04-01T19:45:59.078Z,8.13
2023-04-01T19:48:44.760Z,8.15
2023-04-01T19:51:28.404Z,8.16
2023-04-01T19:54:04.830Z,8.13
2023-04-01T19:56:48.829Z,8.14
2023-04-01T19:59:35.802Z,8.14
2023-04-01T20:02:08.163Z,8.12
2023-04-01T20:04:42.175Z,8.17
2023-04-01T20:07:16.867Z,8.18
2023-04-01T20:10:10.855Z,8.18
2023-04-01T20:12:48.972Z,8.21
2023-04-01T20:15:36.676Z,8.19
2023-04-01T20:18:13.726Z,8.16
2023-04-01T20:20:42.044Z,8.20
2023-04-01T20:23:31.482Z,8.14
2023-04-01T20:26:07.537Z,8.13
2023-04-01T20:28:44.178Z,8.08
2023-04-01T20:31:16.498Z,8.05
2023-04-01T20:34:09.593Z,8.02
2023-04-01T20:36:57.228Z,8.07
2023-04-01T20:39:42.233Z,8.03
2023-04-01T20:42:30.012Z,8.08
2023-04-01T20:45:33.968Z,8.05
2023-04-01T20:48:27.884Z,8.02
2023-04-01T20:51:04.119Z,8.10
2023-04-01T20:53:50.948Z,8.00
2023-04-01T20:56:17.401Z,8.17
2023-04-01T20:59:05.890Z,8.17
2023-04-01T21:02:09.885Z,8.14
2023-04-01T21:05:10.104Z,8.07
2023-04-01T21:07:45.723Z,7.99
2023-04-01T21:10:27.987Z,8.17
2023-04-01T21:13:20.384Z,8.09
2023-04-01T21:16:05.275Z,8.07
2023-04-01T21:18:38.046Z,8.00
2023-04-01T21:21:57.486Z,7.97
2023-04-01T21:24:46.329Z,7.97
2023-04-01T21:27:27.673Z,8.01
2023-04-01T21:30:06.382Z,7.73
2023-04-01T21:33:06.852Z,7.77
2023-04-01T21:36:04.813Z,7.64
2023-04-01T21:38:49.777Z,7.53
2023-04-01T21:41:19.190Z,7.49
2023-04-01T21:44:25.638Z,7.59
2023-04-01T21:47:14.008Z,7.66
2023-04-01T21:49:49.412Z,7.61
2023-04-01T21:53:11.442Z,7.56
2023-04-01T21:55:52.911Z,7.54
2023-04-01T21:59:02.417Z,7.60
2023-04-01T22:01:49.127Z,7.57
2023-04-01T22:04:49.839Z,7.52
2023-04-01T22:07:21.169Z,7.56
2023-04-01T22:10:21.416Z,7.60
2023-04-01T22:13:10.939Z,7.62
2023-04-01T22:15:56.716Z,7.60
2023-04-01T22:18:51.575Z,7.55
2023-04-01T22:21:35.982Z,7.59
2023-04-01T22:24:13.715Z,7.74
2023-04-01T22:27:26.130Z,7.81
2023-04-01T22:30:16.230Z,7.64
2023-04-01T22:32:53.196Z,7.73
2023-04-01T22:35:44.486Z,7.70
2023-04-01T22:38:32.529Z,7.73
2023-04-01T22:41:13.320Z,7.81
2023-04-01T22:43:45.038Z,7.75
2023-04-01T22:46:50.730Z,7.67
2023-04-01T22:49:43.084Z,7.52
2023-04-01T22:52:29.911Z,7.51
2023-04-01T22:55:01.870Z,7.45
2023-04-01T22:57:31.514Z,7.40
2023-04-01T23:00:18.623Z,7.38
2023-04-01T23:03:05.960Z,7.39
2023-04-01T23:05:37.504Z,7.32
2023-04-01T23:08:34.463Z,7.36
2023-04-01T23:11:05.224Z,7.35
2023-04-01T23:14:04.518Z,7.32
2023-04-01T23:16:37.913Z,7.29
2023-04-01T23:19:15.573Z,7.21
2023-04-01T23:21:52.844Z,7.17
2023-04-01T23:24:31.314Z,7.25
2023-04-01T23:27:06.717Z,7.27
2023-04-01T23:29:37.585Z,7.35
2023-04-01T23:32:05.305Z,7.32
2023-04-01T23:34:34.642Z,7.35
2023-04-01T23:37:17.065Z,7.30
2023-04-01T23:39:49.857Z,7.23
2023-04-01T23:42:21.908Z,7.34
2023-04-01T23:44:52.031Z,7.32
2023-04-01T23:47:28.588Z,7.44
2023-04-01T23:49:59.118Z,7.40
2023-04-01T23:52:32.307Z,7.36
2023-04-01T23:55:43.364Z,7.38
2023-04-01T23:58:11.849Z,7.28
